createdAt,value
2022-12-31T00:00:00.486Z,1002.41
2022-12-31T00:00:39.555Z,1002.39
2022-12-31T00:01:39.461Z,1002.42
2022-12-31T00:03:00.602Z,1002.41
2022-12-31T00:03:39.436Z,1002.44
2022-12-31T00:05:00.453Z,1002.43
2022-12-31T00:05:39.425Z,1002.46
2022-12-31T00:06:39.427Z,1002.45
2022-12-31T00:08:00.422Z,1002.48
2022-12-31T00:08:39.406Z,1002.48
2022-12-31T00:10:00.404Z,1002.49
2022-12-31T00:10:39.389Z,1002.53
2022-12-31T00:11:39.370Z,1002.52
2022-12-31T00:13:00.469Z,1002.52
2022-12-31T00:13:39.350Z,1002.50
2022-12-31T00:15:00.365Z,1002.53
2022-12-31T00:15:39.325Z,1002.57
2022-12-31T00:16:39.468Z,1002.61
2022-12-31T00:18:00.313Z,1002.65
2022-12-31T00:18:39.318Z,1002.63
2022-12-31T00:20:00.321Z,1002.55
2022-12-31T00:20:39.299Z,1002.62
2022-12-31T00:21:39.289Z,1002.59
2022-12-31T00:23:00.281Z,1002.64
2022-12-31T00:23:39.269Z,1002.67
2022-12-31T00:25:00.267Z,1002.79
2022-12-31T00:25:39.260Z,1002.74
2022-12-31T00:26:39.231Z,1002.75
2022-12-31T00:28:00.246Z,1002.80
2022-12-31T00:28:39.214Z,1002.73
2022-12-31T00:30:04.529Z,1002.74
2022-12-31T00:30:39.235Z,1002.80
2022-12-31T00:31:39.214Z,1002.76
2022-12-31T00:33:00.180Z,1002.73
2022-12-31T00:33:39.179Z,1002.73
2022-12-31T00:35:00.165Z,1002.70
2022-12-31T00:35:39.162Z,1002.69
2022-12-31T00:36:39.169Z,1002.74
2022-12-31T00:38:00.184Z,1002.70
2022-12-31T00:38:39.145Z,1002.71
2022-12-31T00:40:00.163Z,1002.73
2022-12-31T00:40:39.114Z,1002.64
2022-12-31T00:41:39.127Z,1002.61
2022-12-31T00:43:00.122Z,1002.63
2022-12-31T00:43:39.086Z,1002.68
2022-12-31T00:45:00.132Z,1002.63
2022-12-31T00:45:39.060Z,1002.62
2022-12-31T00:48:10.718Z,1002.67
2022-12-31T00:49:10.701Z,1002.69
2022-12-31T00:51:14.731Z,1002.67
2022-12-31T00:52:14.718Z,1002.66
2022-12-31T00:54:18.697Z,1002.75
2022-12-31T00:55:18.679Z,1002.72
2022-12-31T00:57:22.880Z,1002.79
2022-12-31T00:58:22.860Z,1002.80
2022-12-31T01:00:15.760Z,1002.90
2022-12-31T01:01:15.800Z,1002.94
2022-12-31T01:03:19.768Z,1003.02
2022-12-31T01:04:19.720Z,1003.05
2022-12-31T01:06:12.826Z,1003.06
2022-12-31T01:07:12.804Z,1003.07
2022-12-31T01:09:16.803Z,1003.09
2022-12-31T01:10:16.787Z,1003.14
2022-12-31T01:12:09.888Z,1003.14
2022-12-31T01:13:09.867Z,1003.11
2022-12-31T01:15:02.971Z,1003.15
2022-12-31T01:16:02.996Z,1003.18
2022-12-31T01:18:07.016Z,1003.16
2022-12-31T01:19:07.011Z,1003.17
2022-12-31T01:20:59.915Z,1003.14
2022-12-31T01:21:59.913Z,1003.19
2022-12-31T01:23:53.033Z,1003.27
2022-12-31T01:24:52.987Z,1003.25
2022-12-31T01:26:56.982Z,1003.22
2022-12-31T01:27:56.952Z,1003.15
2022-12-31T01:29:49.860Z,1003.21
2022-12-31T01:30:49.881Z,1003.20
2022-12-31T01:32:53.842Z,1003.16
2022-12-31T01:33:53.814Z,1003.17
2022-12-31T01:35:47.329Z,1003.32
2022-12-31T01:36:47.254Z,1003.31
2022-12-31T01:37:47.245Z,1003.31
2022-12-31T01:38:47.250Z,1003.32
2022-12-31T01:39:47.230Z,1003.33
2022-12-31T01:40:47.223Z,1003.37
2022-12-31T01:41:47.210Z,1003.42
2022-12-31T01:42:47.225Z,1003.39
2022-12-31T01:43:47.200Z,1003.39
2022-12-31T01:44:47.192Z,1003.40
2022-12-31T01:45:47.191Z,1003.38
2022-12-31T01:46:47.206Z,1003.35
2022-12-31T01:47:47.159Z,1003.39
2022-12-31T01:48:47.161Z,1003.47
2022-12-31T01:49:47.144Z,1003.48
2022-12-31T01:50:47.130Z,1003.49
2022-12-31T01:51:47.121Z,1003.50
2022-12-31T01:52:47.111Z,1003.46
2022-12-31T01:53:47.106Z,1003.48
2022-12-31T01:54:47.099Z,1003.51
2022-12-31T01:55:47.086Z,1003.42
2022-12-31T01:56:47.083Z,1003.41
2022-12-31T01:57:47.075Z,1003.35
2022-12-31T01:58:47.073Z,1003.37
2022-12-31T01:59:47.058Z,1003.32
2022-12-31T02:00:47.051Z,1003.35
2022-12-31T02:01:47.110Z,1003.35
2022-12-31T02:02:47.174Z,1003.34
2022-12-31T02:03:47.024Z,1003.38
2022-12-31T02:04:47.011Z,1003.38
2022-12-31T02:05:46.999Z,1003.44
2022-12-31T02:06:46.997Z,1003.40
2022-12-31T02:07:46.992Z,1003.48
2022-12-31T02:08:46.977Z,1003.48
2022-12-31T02:09:46.969Z,1003.55
2022-12-31T02:10:46.957Z,1003.54
2022-12-31T02:11:46.950Z,1003.43
2022-12-31T02:12:46.945Z,1003.47
2022-12-31T02:13:46.933Z,1003.47
2022-12-31T02:14:46.924Z,1003.45
2022-12-31T02:15:46.951Z,1003.47
2022-12-31T02:16:46.908Z,1003.49
2022-12-31T02:17:46.899Z,1003.54
2022-12-31T02:18:46.894Z,1003.50
2022-12-31T02:19:46.883Z,1003.54
2022-12-31T02:20:46.878Z,1003.53
2022-12-31T02:21:46.868Z,1003.51
2022-12-31T02:22:46.864Z,1003.48
2022-12-31T02:23:46.850Z,1003.55
2022-12-31T02:24:46.843Z,1003.48
2022-12-31T02:25:46.832Z,1003.43
2022-12-31T02:26:46.825Z,1003.43
2022-12-31T02:27:46.815Z,1003.46
2022-12-31T02:28:46.811Z,1003.46
2022-12-31T02:29:46.809Z,1003.47
2022-12-31T02:30:46.794Z,1003.52
2022-12-31T02:31:46.821Z,1003.49
2022-12-31T02:32:46.778Z,1003.47
2022-12-31T02:33:46.788Z,1003.48
2022-12-31T02:34:46.756Z,1003.46
2022-12-31T02:35:46.751Z,1003.44
2022-12-31T02:36:46.743Z,1003.44
2022-12-31T02:37:46.755Z,1003.42
2022-12-31T02:38:46.731Z,1003.43
2022-12-31T02:39:46.736Z,1003.40
2022-12-31T02:40:46.707Z,1003.37
2022-12-31T02:41:46.702Z,1003.35
2022-12-31T02:42:53.308Z,1003.36
2022-12-31T02:43:46.684Z,1003.37
2022-12-31T02:44:46.676Z,1003.38
2022-12-31T02:45:46.664Z,1003.40
2022-12-31T02:46:46.671Z,1003.44
2022-12-31T02:47:46.649Z,1003.39
2022-12-31T02:48:46.641Z,1003.39
2022-12-31T02:49:46.635Z,1003.42
2022-12-31T02:50:46.624Z,1003.46
2022-12-31T02:51:46.622Z,1003.45
2022-12-31T02:52:46.610Z,1003.44
2022-12-31T02:53:46.601Z,1003.44
2022-12-31T02:54:46.590Z,1003.42
2022-12-31T02:55:46.594Z,1003.39
2022-12-31T02:56:46.576Z,1003.41
2022-12-31T02:57:46.571Z,1003.41
2022-12-31T02:58:46.560Z,1003.43
2022-12-31T02:59:46.552Z,1003.44
2022-12-31T03:00:46.574Z,1003.44
2022-12-31T03:01:46.670Z,1003.38
2022-12-31T03:02:46.544Z,1003.39
2022-12-31T03:03:46.518Z,1003.37
2022-12-31T03:04:46.513Z,1003.38
2022-12-31T03:05:46.525Z,1003.28
2022-12-31T03:06:46.497Z,1003.28
2022-12-31T03:07:46.488Z,1003.22
2022-12-31T03:08:46.476Z,1003.25
2022-12-31T03:09:46.469Z,1003.25
2022-12-31T03:10:46.462Z,1003.29
2022-12-31T03:11:46.457Z,1003.31
2022-12-31T03:12:46.456Z,1003.30
2022-12-31T03:13:46.438Z,1003.32
2022-12-31T03:14:46.437Z,1003.33
2022-12-31T03:15:46.419Z,1003.33
2022-12-31T03:16:46.424Z,1003.30
2022-12-31T03:17:46.406Z,1003.31
2022-12-31T03:18:46.397Z,1003.35
2022-12-31T03:19:46.391Z,1003.38
2022-12-31T03:20:46.390Z,1003.34
2022-12-31T03:21:46.370Z,1003.29
2022-12-31T03:22:46.368Z,1003.30
2022-12-31T03:23:46.357Z,1003.35
2022-12-31T03:24:46.355Z,1003.36
2022-12-31T03:25:46.344Z,1003.40
2022-12-31T03:26:46.332Z,1003.33
2022-12-31T03:27:46.328Z,1003.20
2022-12-31T03:28:46.318Z,1003.23
2022-12-31T03:29:46.309Z,1003.21
2022-12-31T03:30:46.299Z,1003.22
2022-12-31T03:31:46.327Z,1003.23
2022-12-31T03:32:46.295Z,1003.22
2022-12-31T03:33:46.280Z,1003.30
2022-12-31T03:34:46.271Z,1003.27
2022-12-31T03:35:46.266Z,1003.29
2022-12-31T03:36:46.255Z,1003.26
2022-12-31T03:37:46.247Z,1003.24
2022-12-31T03:38:49.864Z,1003.24
2022-12-31T03:39:46.228Z,1003.27
2022-12-31T03:40:46.234Z,1003.26
2022-12-31T03:41:46.218Z,1003.28
2022-12-31T03:42:46.211Z,1003.28
2022-12-31T03:43:46.199Z,1003.28
2022-12-31T03:44:46.193Z,1003.25
2022-12-31T03:45:46.188Z,1003.24
2022-12-31T03:46:46.174Z,1003.23
2022-12-31T03:47:46.163Z,1003.17
2022-12-31T03:48:46.155Z,1003.11
2022-12-31T03:49:46.157Z,1003.14
2022-12-31T03:50:46.153Z,1003.13
2022-12-31T03:51:46.133Z,1003.12
2022-12-31T03:52:46.130Z,1003.09
2022-12-31T03:53:46.119Z,1003.04
2022-12-31T03:54:46.112Z,1003.05
2022-12-31T03:55:46.102Z,1003.02
2022-12-31T03:56:48.879Z,1002.96
2022-12-31T03:57:46.102Z,1002.93
2022-12-31T03:58:46.089Z,1002.95
2022-12-31T03:59:46.082Z,1002.91
2022-12-31T04:00:46.089Z,1002.88
2022-12-31T04:01:46.115Z,1002.97
2022-12-31T04:02:46.098Z,1003.00
2022-12-31T04:03:46.039Z,1002.97
2022-12-31T04:04:46.034Z,1002.95
2022-12-31T04:05:46.027Z,1002.98
2022-12-31T04:06:46.014Z,1002.99
2022-12-31T04:07:46.009Z,1002.96
2022-12-31T04:08:46.010Z,1002.99
2022-12-31T04:09:46.002Z,1003.00
2022-12-31T04:10:45.984Z,1003.01
2022-12-31T04:11:45.978Z,1003.05
2022-12-31T04:12:45.970Z,1003.05
2022-12-31T04:13:45.968Z,1003.08
2022-12-31T04:14:45.957Z,1002.98
2022-12-31T04:15:45.946Z,1003.01
2022-12-31T04:16:45.967Z,1002.99
2022-12-31T04:17:45.937Z,1003.01
2022-12-31T04:18:45.939Z,1003.06
2022-12-31T04:19:45.911Z,1003.06
2022-12-31T04:20:45.904Z,1003.06
2022-12-31T04:21:45.897Z,1003.09
2022-12-31T04:22:45.905Z,1003.07
2022-12-31T04:23:45.892Z,1003.09
2022-12-31T04:24:45.875Z,1003.05
2022-12-31T04:25:45.870Z,1003.07
2022-12-31T04:26:45.874Z,1003.08
2022-12-31T04:27:45.881Z,1003.10
2022-12-31T04:28:45.843Z,1003.15
2022-12-31T04:29:45.835Z,1003.13
2022-12-31T04:30:45.845Z,1003.19
2022-12-31T04:31:45.854Z,1003.20
2022-12-31T04:32:45.812Z,1003.23
2022-12-31T04:33:45.803Z,1003.19
2022-12-31T04:34:45.795Z,1003.18
2022-12-31T04:35:45.822Z,1003.16
2022-12-31T04:36:45.811Z,1003.13
2022-12-31T04:37:45.771Z,1003.09
2022-12-31T04:38:45.767Z,1003.09
2022-12-31T04:39:45.757Z,1003.00
2022-12-31T04:40:45.752Z,1003.00
2022-12-31T04:41:45.750Z,1003.06
2022-12-31T04:42:45.740Z,1003.05
2022-12-31T04:43:45.730Z,1003.02
2022-12-31T04:44:45.721Z,1003.00
2022-12-31T04:45:45.736Z,1002.95
2022-12-31T04:46:45.716Z,1002.99
2022-12-31T04:47:45.693Z,1002.99
2022-12-31T04:48:45.688Z,1002.91
2022-12-31T04:49:45.679Z,1002.91
2022-12-31T04:50:45.669Z,1002.83
2022-12-31T04:51:45.663Z,1002.76
2022-12-31T04:52:45.660Z,1002.73
2022-12-31T04:53:45.652Z,1002.68
2022-12-31T04:54:45.639Z,1002.62
2022-12-31T04:55:45.631Z,1002.66
2022-12-31T04:56:45.622Z,1002.64
2022-12-31T04:57:45.620Z,1002.65
2022-12-31T04:58:45.620Z,1002.68
2022-12-31T04:59:45.605Z,1002.69
2022-12-31T05:00:45.594Z,1002.65
2022-12-31T05:01:45.648Z,1002.60
2022-12-31T05:02:45.875Z,1002.57
2022-12-31T05:03:45.590Z,1002.58
2022-12-31T05:04:45.560Z,1002.62
2022-12-31T05:05:45.551Z,1002.58
2022-12-31T05:06:45.549Z,1002.56
2022-12-31T05:07:45.542Z,1002.56
2022-12-31T05:08:45.528Z,1002.52
2022-12-31T05:09:45.521Z,1002.51
2022-12-31T05:10:45.510Z,1002.52
2022-12-31T05:11:45.508Z,1002.52
2022-12-31T05:12:45.496Z,1002.52
2022-12-31T05:13:45.493Z,1002.55
2022-12-31T05:14:45.482Z,1002.60
2022-12-31T05:15:45.482Z,1002.66
2022-12-31T05:16:45.491Z,1002.64
2022-12-31T05:17:45.458Z,1002.65
2022-12-31T05:18:45.446Z,1002.71
2022-12-31T05:19:45.443Z,1002.69
2022-12-31T05:20:45.440Z,1002.70
2022-12-31T05:21:45.432Z,1002.68
2022-12-31T05:22:45.420Z,1002.74
2022-12-31T05:23:45.419Z,1002.76
2022-12-31T05:24:45.401Z,1002.73
2022-12-31T05:25:45.397Z,1002.75
2022-12-31T05:26:45.388Z,1002.75
2022-12-31T05:27:45.377Z,1002.72
2022-12-31T05:28:45.379Z,1002.69
2022-12-31T05:29:45.365Z,1002.71
2022-12-31T05:30:45.375Z,1002.70
2022-12-31T05:31:45.349Z,1002.73
2022-12-31T05:32:45.350Z,1002.63
2022-12-31T05:33:45.336Z,1002.61
2022-12-31T05:34:45.328Z,1002.67
2022-12-31T05:35:45.334Z,1002.72
2022-12-31T05:36:45.310Z,1002.79
2022-12-31T05:37:45.325Z,1002.77
2022-12-31T05:38:45.301Z,1002.77
2022-12-31T05:39:45.288Z,1002.76
2022-12-31T05:40:45.287Z,1002.68
2022-12-31T05:41:45.275Z,1002.64
2022-12-31T05:42:45.271Z,1002.65
2022-12-31T05:43:45.257Z,1002.66
2022-12-31T05:44:45.244Z,1002.63
2022-12-31T05:45:45.283Z,1002.57
2022-12-31T05:46:45.231Z,1002.60
2022-12-31T05:47:45.222Z,1002.56
2022-12-31T05:48:45.220Z,1002.56
2022-12-31T05:49:45.226Z,1002.44
2022-12-31T05:50:45.209Z,1002.50
2022-12-31T05:51:45.193Z,1002.47
2022-12-31T05:52:47.629Z,1002.48
2022-12-31T05:53:45.176Z,1002.40
2022-12-31T05:54:45.179Z,1002.40
2022-12-31T05:55:45.160Z,1002.36
2022-12-31T05:56:45.154Z,1002.34
2022-12-31T05:57:45.152Z,1002.29
2022-12-31T05:58:45.137Z,1002.34
2022-12-31T05:59:45.129Z,1002.32
2022-12-31T06:00:45.122Z,1002.29
2022-12-31T06:01:45.115Z,1002.23
2022-12-31T06:02:45.167Z,1002.24
2022-12-31T06:03:45.123Z,1002.19
2022-12-31T06:04:45.104Z,1002.14
2022-12-31T06:05:45.093Z,1002.08
2022-12-31T06:06:45.079Z,1002.07
2022-12-31T06:07:45.068Z,1002.07
2022-12-31T06:08:45.060Z,1002.13
2022-12-31T06:09:45.054Z,1002.14
2022-12-31T06:10:45.073Z,1002.12
2022-12-31T06:11:45.040Z,1002.12
2022-12-31T06:12:45.029Z,1002.05
2022-12-31T06:13:45.024Z,1002.03
2022-12-31T06:14:45.915Z,1002.03
2022-12-31T06:15:45.042Z,1001.96
2022-12-31T06:16:44.997Z,1001.89
2022-12-31T06:17:44.995Z,1001.88
2022-12-31T06:18:44.984Z,1001.83
2022-12-31T06:19:44.975Z,1001.90
2022-12-31T06:20:44.972Z,1001.95
2022-12-31T06:21:44.966Z,1001.96
2022-12-31T06:22:44.961Z,1001.93
2022-12-31T06:23:44.945Z,1001.98
2022-12-31T06:24:44.939Z,1001.93
2022-12-31T06:25:44.927Z,1001.98
2022-12-31T06:26:44.923Z,1001.95
2022-12-31T06:27:44.919Z,1001.93
2022-12-31T06:28:44.913Z,1001.85
2022-12-31T06:29:44.903Z,1001.78
2022-12-31T06:30:44.909Z,1001.74
2022-12-31T06:31:44.884Z,1001.77
2022-12-31T06:32:44.878Z,1001.91
2022-12-31T06:33:44.872Z,1001.98
2022-12-31T06:34:44.863Z,1001.95
2022-12-31T06:35:44.848Z,1001.88
2022-12-31T06:36:44.850Z,1001.83
2022-12-31T06:37:44.834Z,1001.83
2022-12-31T06:38:44.853Z,1001.85
2022-12-31T06:39:44.828Z,1001.84
2022-12-31T06:40:44.832Z,1001.89
2022-12-31T06:41:44.808Z,1001.83
2022-12-31T06:42:44.807Z,1001.88
2022-12-31T06:43:44.795Z,1001.89
2022-12-31T06:44:44.809Z,1001.85
2022-12-31T06:45:44.779Z,1001.85
2022-12-31T06:46:44.868Z,1001.86
2022-12-31T06:47:44.766Z,1001.77
2022-12-31T06:48:44.750Z,1001.84
2022-12-31T06:49:44.747Z,1001.79
2022-12-31T06:50:44.741Z,1001.80
2022-12-31T06:51:44.729Z,1001.80
2022-12-31T06:52:44.721Z,1001.75
2022-12-31T06:53:44.714Z,1001.71
2022-12-31T06:54:44.711Z,1001.70
2022-12-31T06:55:44.755Z,1001.73
2022-12-31T06:56:44.693Z,1001.73
2022-12-31T06:57:44.688Z,1001.70
2022-12-31T06:58:44.679Z,1001.70
2022-12-31T06:59:44.692Z,1001.75
2022-12-31T07:00:44.661Z,1001.66
2022-12-31T07:01:44.876Z,1001.80
2022-12-31T07:02:44.717Z,1001.76
2022-12-31T07:03:44.638Z,1001.75
2022-12-31T07:04:44.637Z,1001.77
2022-12-31T07:05:44.624Z,1001.68
2022-12-31T07:06:44.621Z,1001.73
2022-12-31T07:07:44.608Z,1001.59
2022-12-31T07:08:44.605Z,1001.69
2022-12-31T07:09:44.602Z,1001.69
2022-12-31T07:10:44.588Z,1001.68
2022-12-31T07:11:44.582Z,1001.67
2022-12-31T07:12:44.576Z,1001.64
2022-12-31T07:13:44.572Z,1001.66
2022-12-31T07:14:44.563Z,1001.54
2022-12-31T07:15:44.609Z,1001.56
2022-12-31T07:16:44.546Z,1001.58
2022-12-31T07:17:44.537Z,1001.61
2022-12-31T07:18:44.531Z,1001.57
2022-12-31T07:19:44.520Z,1001.63
2022-12-31T07:20:44.529Z,1001.59
2022-12-31T07:21:44.507Z,1001.68
2022-12-31T07:22:44.496Z,1001.63
2022-12-31T07:23:44.491Z,1001.61
2022-12-31T07:24:44.492Z,1001.67
2022-12-31T07:25:44.480Z,1001.59
2022-12-31T07:26:44.471Z,1001.66
2022-12-31T07:27:44.503Z,1001.63
2022-12-31T07:28:44.456Z,1001.64
2022-12-31T07:29:44.446Z,1001.64
2022-12-31T07:30:44.440Z,1001.63
2022-12-31T07:31:44.452Z,1001.69
2022-12-31T07:32:44.429Z,1001.67
2022-12-31T07:33:44.416Z,1001.72
2022-12-31T07:34:44.433Z,1001.70
2022-12-31T07:35:44.417Z,1001.75
2022-12-31T07:36:44.396Z,1001.71
2022-12-31T07:37:44.412Z,1001.65
2022-12-31T07:38:44.382Z,1001.56
2022-12-31T07:39:44.377Z,1001.54
2022-12-31T07:40:44.369Z,1001.58
2022-12-31T07:41:44.360Z,1001.60
2022-12-31T07:42:44.356Z,1001.62
2022-12-31T07:43:44.350Z,1001.63
2022-12-31T07:44:44.348Z,1001.69
2022-12-31T07:45:44.334Z,1001.63
2022-12-31T07:46:44.343Z,1001.65
2022-12-31T07:47:44.319Z,1001.70
2022-12-31T07:48:44.316Z,1001.72
2022-12-31T07:49:44.302Z,1001.72
2022-12-31T07:50:44.294Z,1001.79
2022-12-31T07:51:44.286Z,1001.82
2022-12-31T07:52:44.283Z,1001.87
2022-12-31T07:53:44.284Z,1001.90
2022-12-31T07:54:44.289Z,1001.91
2022-12-31T07:55:44.270Z,1001.93
2022-12-31T07:56:44.255Z,1001.93
2022-12-31T07:57:44.249Z,1002.01
2022-12-31T07:58:44.245Z,1002.03
2022-12-31T07:59:44.237Z,1001.94
2022-12-31T08:00:44.266Z,1001.88
2022-12-31T08:01:44.353Z,1001.90
2022-12-31T08:02:44.260Z,1001.92
2022-12-31T08:03:44.207Z,1001.93
2022-12-31T08:04:44.207Z,1002.02
2022-12-31T08:05:44.209Z,1002.08
2022-12-31T08:06:44.187Z,1002.07
2022-12-31T08:07:44.178Z,1002.09
2022-12-31T08:08:44.173Z,1001.93
2022-12-31T08:09:44.222Z,1001.98
2022-12-31T08:10:44.164Z,1002.01
2022-12-31T08:11:44.152Z,1002.14
2022-12-31T08:12:44.154Z,1002.04
2022-12-31T08:13:44.145Z,1002.10
2022-12-31T08:14:44.144Z,1002.12
2022-12-31T08:15:44.256Z,1002.05
2022-12-31T08:16:44.146Z,1002.05
2022-12-31T08:17:44.114Z,1002.10
2022-12-31T08:18:44.107Z,1002.11
2022-12-31T08:19:44.101Z,1002.12
2022-12-31T08:20:44.099Z,1002.12
2022-12-31T08:21:44.092Z,1002.10
2022-12-31T08:22:44.087Z,1002.11
2022-12-31T08:23:44.076Z,1002.12
2022-12-31T08:24:44.066Z,1002.15
2022-12-31T08:25:44.068Z,1002.10
2022-12-31T08:26:49.463Z,1002.10
2022-12-31T08:27:44.047Z,1002.00
2022-12-31T08:28:44.041Z,1002.02
2022-12-31T08:29:44.048Z,1001.99
2022-12-31T08:30:44.029Z,1001.98
2022-12-31T08:31:44.059Z,1001.90
2022-12-31T08:32:44.020Z,1001.88
2022-12-31T08:33:44.012Z,1002.00
2022-12-31T08:34:44.004Z,1002.02
2022-12-31T08:35:43.999Z,1002.07
2022-12-31T08:36:44.005Z,1002.12
2022-12-31T08:37:44.013Z,1002.14
2022-12-31T08:38:43.979Z,1002.21
2022-12-31T08:39:43.990Z,1002.23
2022-12-31T08:40:43.962Z,1002.22
2022-12-31T08:41:43.957Z,1002.15
2022-12-31T08:42:43.951Z,1002.11
2022-12-31T08:43:43.947Z,1002.04
2022-12-31T08:44:43.936Z,1002.03
2022-12-31T08:45:43.979Z,1002.01
2022-12-31T08:46:43.927Z,1002.08
2022-12-31T08:47:43.928Z,1002.11
2022-12-31T08:48:43.915Z,1002.11
2022-12-31T08:49:43.909Z,1002.15
2022-12-31T08:50:43.899Z,1002.13
2022-12-31T08:51:43.896Z,1002.16
2022-12-31T08:52:43.888Z,1002.16
2022-12-31T08:53:43.904Z,1002.16
2022-12-31T08:54:43.878Z,1002.09
2022-12-31T08:55:43.873Z,1002.16
2022-12-31T08:56:50.187Z,1002.07
2022-12-31T08:57:43.859Z,1002.03
2022-12-31T08:58:43.853Z,1002.15
2022-12-31T08:59:43.848Z,1002.15
2022-12-31T09:00:43.905Z,1002.10
2022-12-31T09:01:43.981Z,1002.06
2022-12-31T09:02:48.050Z,1002.11
2022-12-31T09:03:43.820Z,1002.12
2022-12-31T09:04:43.829Z,1002.08
2022-12-31T09:05:43.814Z,1002.13
2022-12-31T09:06:43.804Z,1002.11
2022-12-31T09:07:43.801Z,1002.11
2022-12-31T09:08:43.793Z,1002.23
2022-12-31T09:09:43.788Z,1002.14
2022-12-31T09:10:43.779Z,1002.17
2022-12-31T09:11:43.773Z,1002.11
2022-12-31T09:12:43.771Z,1002.07
2022-12-31T09:13:43.763Z,1002.11
2022-12-31T09:14:43.758Z,1002.12
2022-12-31T09:15:43.752Z,1002.16
2022-12-31T09:16:43.771Z,1002.15
2022-12-31T09:17:43.735Z,1002.14
2022-12-31T09:18:43.733Z,1002.21
2022-12-31T09:19:43.731Z,1002.14
2022-12-31T09:20:44.626Z,1002.15
2022-12-31T09:21:43.729Z,1002.13
2022-12-31T09:22:43.714Z,1002.21
2022-12-31T09:23:43.698Z,1002.11
2022-12-31T09:24:43.700Z,1002.15
2022-12-31T09:25:43.691Z,1002.18
2022-12-31T09:26:43.686Z,1002.11
2022-12-31T09:27:43.679Z,1002.05
2022-12-31T09:28:43.677Z,1002.16
2022-12-31T09:29:43.670Z,1002.18
2022-12-31T09:30:43.662Z,1002.22
2022-12-31T09:31:43.702Z,1002.22
2022-12-31T09:32:43.646Z,1002.19
2022-12-31T09:33:43.643Z,1002.16
2022-12-31T09:34:43.644Z,1002.19
2022-12-31T09:35:43.628Z,1002.24
2022-12-31T09:36:43.626Z,1002.28
2022-12-31T09:37:43.628Z,1002.23
2022-12-31T09:38:43.617Z,1002.24
2022-12-31T09:39:43.611Z,1002.34
2022-12-31T09:40:43.601Z,1002.30
2022-12-31T09:41:43.597Z,1002.33
2022-12-31T09:42:43.600Z,1002.37
2022-12-31T09:43:43.587Z,1002.37
2022-12-31T09:44:43.581Z,1002.42
2022-12-31T09:45:43.585Z,1002.39
2022-12-31T09:46:43.568Z,1002.44
2022-12-31T09:47:43.566Z,1002.44
2022-12-31T09:48:43.558Z,1002.45
2022-12-31T09:49:43.553Z,1002.47
2022-12-31T09:50:43.549Z,1002.48
2022-12-31T09:51:43.538Z,1002.44
2022-12-31T09:52:43.535Z,1002.58
2022-12-31T09:53:43.528Z,1002.55
2022-12-31T09:54:43.529Z,1002.58
2022-12-31T09:55:43.518Z,1002.54
2022-12-31T09:56:43.519Z,1002.55
2022-12-31T09:57:43.512Z,1002.48
2022-12-31T09:58:43.513Z,1002.49
2022-12-31T09:59:43.496Z,1002.45
2022-12-31T10:00:43.490Z,1002.43
2022-12-31T10:01:43.586Z,1002.42
2022-12-31T10:02:43.637Z,1002.42
2022-12-31T10:03:43.492Z,1002.47
2022-12-31T10:04:43.559Z,1002.54
2022-12-31T10:05:43.465Z,1002.56
2022-12-31T10:06:43.460Z,1002.57
2022-12-31T10:07:48.745Z,1002.54
2022-12-31T10:08:43.455Z,1002.58
2022-12-31T10:09:43.451Z,1002.57
2022-12-31T10:10:43.441Z,1002.62
2022-12-31T10:11:43.430Z,1002.64
2022-12-31T10:12:43.441Z,1002.65
2022-12-31T10:13:43.417Z,1002.59
2022-12-31T10:14:47.329Z,1002.64
2022-12-31T10:15:43.406Z,1002.69
2022-12-31T10:16:43.458Z,1002.75
2022-12-31T10:17:43.396Z,1002.76
2022-12-31T10:18:43.405Z,1002.77
2022-12-31T10:19:43.384Z,1002.82
2022-12-31T10:20:45.420Z,1002.85
2022-12-31T10:21:43.385Z,1002.91
2022-12-31T10:22:43.377Z,1002.94
2022-12-31T10:23:43.359Z,1002.92
2022-12-31T10:24:43.359Z,1002.94
2022-12-31T10:25:43.365Z,1002.96
2022-12-31T10:26:45.356Z,1002.97
2022-12-31T10:27:43.343Z,1003.05
2022-12-31T10:28:43.339Z,1003.03
2022-12-31T10:29:43.334Z,1002.96
2022-12-31T10:30:43.432Z,1003.00
2022-12-31T10:31:43.326Z,1003.03
2022-12-31T10:32:43.335Z,1002.96
2022-12-31T10:33:43.313Z,1003.05
2022-12-31T10:34:43.307Z,1003.08
2022-12-31T10:35:43.304Z,1003.11
2022-12-31T10:36:43.304Z,1003.11
2022-12-31T10:37:43.288Z,1003.14
2022-12-31T10:38:43.284Z,1003.21
2022-12-31T10:39:43.278Z,1003.17
2022-12-31T10:40:43.275Z,1003.17
2022-12-31T10:41:43.270Z,1003.17
2022-12-31T10:42:43.262Z,1003.13
2022-12-31T10:43:43.250Z,1003.09
2022-12-31T10:44:43.256Z,1003.09
2022-12-31T10:45:43.321Z,1003.05
2022-12-31T10:46:43.278Z,1003.06
2022-12-31T10:47:43.231Z,1003.13
2022-12-31T10:48:43.223Z,1003.13
2022-12-31T10:49:43.220Z,1003.10
2022-12-31T10:50:43.214Z,1003.15
2022-12-31T10:51:43.210Z,1003.16
2022-12-31T10:52:43.205Z,1003.11
2022-12-31T10:53:43.200Z,1003.18
2022-12-31T10:54:43.193Z,1003.16
2022-12-31T10:55:43.218Z,1003.21
2022-12-31T10:56:43.189Z,1003.22
2022-12-31T10:57:43.175Z,1003.24
2022-12-31T10:58:43.172Z,1003.18
2022-12-31T10:59:43.164Z,1003.18
2022-12-31T11:00:43.161Z,1003.22
2022-12-31T11:01:43.318Z,1003.21
2022-12-31T11:02:43.238Z,1003.23
2022-12-31T11:03:43.205Z,1003.25
2022-12-31T11:04:43.140Z,1003.28
2022-12-31T11:05:43.131Z,1003.33
2022-12-31T11:06:43.129Z,1003.34
2022-12-31T11:07:43.125Z,1003.37
2022-12-31T11:08:43.117Z,1003.36
2022-12-31T11:09:43.134Z,1003.37
2022-12-31T11:10:43.108Z,1003.41
2022-12-31T11:11:43.133Z,1003.45
2022-12-31T11:12:43.098Z,1003.49
2022-12-31T11:13:43.095Z,1003.45
2022-12-31T11:14:43.090Z,1003.43
2022-12-31T11:15:49.836Z,1003.46
2022-12-31T11:16:43.076Z,1003.45
2022-12-31T11:17:43.071Z,1003.48
2022-12-31T11:18:43.073Z,1003.42
2022-12-31T11:19:43.067Z,1003.43
2022-12-31T11:20:43.062Z,1003.42
2022-12-31T11:21:43.048Z,1003.39
2022-12-31T11:22:43.071Z,1003.42
2022-12-31T11:23:43.041Z,1003.43
2022-12-31T11:24:43.034Z,1003.38
2022-12-31T11:25:43.029Z,1003.28
2022-12-31T11:26:43.024Z,1003.19
2022-12-31T11:27:47.681Z,1003.20
2022-12-31T11:28:43.014Z,1003.16
2022-12-31T11:29:43.010Z,1003.18
2022-12-31T11:30:43.032Z,1003.13
2022-12-31T11:31:43.023Z,1003.10
2022-12-31T11:32:42.990Z,1003.09
2022-12-31T11:33:48.446Z,1003.02
2022-12-31T11:34:42.981Z,1003.02
2022-12-31T11:35:42.978Z,1003.02
2022-12-31T11:36:42.968Z,1002.94
2022-12-31T11:37:42.964Z,1002.90
2022-12-31T11:38:42.956Z,1002.85
2022-12-31T11:39:42.961Z,1002.86
2022-12-31T11:40:42.952Z,1002.93
2022-12-31T11:41:42.944Z,1002.92
2022-12-31T11:42:42.942Z,1002.90
2022-12-31T11:43:43.006Z,1002.87
2022-12-31T11:44:42.928Z,1002.89
2022-12-31T11:45:48.604Z,1002.90
2022-12-31T11:46:42.940Z,1002.87
2022-12-31T11:48:20.210Z,1002.83
2022-12-31T11:48:42.903Z,1002.88
2022-12-31T11:49:42.902Z,1002.87
2022-12-31T11:50:42.901Z,1002.88
2022-12-31T11:51:46.926Z,1002.85
2022-12-31T11:52:42.885Z,1002.83
2022-12-31T11:53:42.879Z,1002.83
2022-12-31T11:54:42.908Z,1002.82
2022-12-31T11:55:42.873Z,1002.80
2022-12-31T11:56:42.866Z,1002.85
2022-12-31T11:57:42.858Z,1002.86
2022-12-31T11:58:42.851Z,1002.88
2022-12-31T11:59:42.848Z,1002.85
2022-12-31T12:00:42.847Z,1002.83
2022-12-31T12:01:42.890Z,1002.82
2022-12-31T12:02:42.884Z,1002.78
2022-12-31T12:03:42.869Z,1002.80
2022-12-31T12:04:42.829Z,1002.78
2022-12-31T12:05:42.822Z,1002.77
2022-12-31T12:06:42.823Z,1002.78
2022-12-31T12:07:42.811Z,1002.80
2022-12-31T12:08:42.810Z,1002.79
2022-12-31T12:09:42.949Z,1002.78
2022-12-31T12:10:42.797Z,1002.76
2022-12-31T12:11:42.791Z,1002.75
2022-12-31T12:12:42.780Z,1002.75
2022-12-31T12:13:42.780Z,1002.74
2022-12-31T12:14:42.770Z,1002.79
2022-12-31T12:15:42.774Z,1002.74
2022-12-31T12:16:42.805Z,1002.69
2022-12-31T12:17:42.767Z,1002.68
2022-12-31T12:18:42.768Z,1002.70
2022-12-31T12:19:42.747Z,1002.69
2022-12-31T12:20:42.743Z,1002.73
2022-12-31T12:21:42.754Z,1002.67